sensor_id;sensor_type;location;lat;lon;timestamp;temperature;humidity
14006;DHT22;7078;51.542;7.314;2023-11-21T00:00:05;7.10;99.90
14006;DHT22;7078;51.542;7.314;2023-11-21T00:02:35;7.10;99.90
14006;DHT22;7078;51.542;7.314;2023-11-21T00:05:01;7.10;99.90
14006;DHT22;7078;51.542;7.314;2023-11-21T00:07:28;7.10;99.90
14006;DHT22;7078;51.542;7.314;2023-11-21T00:09:54;7.10;99.90
14006;DHT22;7078;51.542;7.314;2023-11-21T00:12:21;7.20;99.90
14006;DHT22;7078;51.542;7.314;2023-11-21T00:14:47;7.20;99.90
14006;DHT22;7078;51.542;7.314;2023-11-21T00:17:12;7.20;99.90
14006;DHT22;7078;51.542;7.314;2023-11-21T00:19:38;7.20;99.90
14006;DHT22;7078;51.542;7.314;2023-11-21T00:22:03;7.20;99.90
14006;DHT22;7078;51.542;7.314;2023-11-21T00:24:29;7.20;99.90
14006;DHT22;7078;51.542;7.314;2023-11-21T00:26:54;7.20;99.90
14006;DHT22;7078;51.542;7.314;2023-11-21T00:29:20;7.30;99.90
14006;DHT22;7078;51.542;7.314;2023-11-21T00:31:45;7.30;99.90
14006;DHT22;7078;51.542;7.314;2023-11-21T00:34:14;7.40;99.90
14006;DHT22;7078;51.542;7.314;2023-11-21T00:36:40;7.30;99.90
14006;DHT22;7078;51.542;7.314;2023-11-21T00:39:05;7.40;99.90
14006;DHT22;7078;51.542;7.314;2023-11-21T00:41:32;7.40;99.90
14006;DHT22;7078;51.542;7.314;2023-11-21T00:43:57;7.50;99.90
14006;DHT22;7078;51.542;7.314;2023-11-21T00:46:24;7.50;99.90
14006;DHT22;7078;51.542;7.314;2023-11-21T00:48:52;7.50;99.90
14006;DHT22;7078;51.542;7.314;2023-11-21T00:51:19;7.50;99.90
14006;DHT22;7078;51.542;7.314;2023-11-21T00:53:45;7.60;99.90
14006;DHT22;7078;51.542;7.314;2023-11-21T00:56:10;7.60;99.90
14006;DHT22;7078;51.542;7.314;2023-11-21T00:58:36;7.60;99.90
14006;DHT22;7078;51.542;7.314;2023-11-21T01:01:01;7.60;99.90
14006;DHT22;7078;51.542;7.314;2023-11-21T01:03:28;7.60;99.90
14006;DHT22;7078;51.542;7.314;2023-11-21T01:05:54;7.70;99.90
14006;DHT22;7078;51.542;7.314;2023-11-21T01:08:19;7.70;99.90
14006;DHT22;7078;51.542;7.314;2023-11-21T01:10:45;7.70;99.90
14006;DHT22;7078;51.542;7.314;2023-11-21T01:13:11;7.70;99.90
14006;DHT22;7078;51.542;7.314;2023-11-21T01:15:36;7.70;99.90
14006;DHT22;7078;51.542;7.314;2023-11-21T01:18:02;7.70;99.90
14006;DHT22;7078;51.542;7.314;2023-11-21T01:20:28;7.70;99.90
14006;DHT22;7078;51.542;7.314;2023-11-21T01:22:54;7.70;99.90
14006;DHT22;7078;51.542;7.314;2023-11-21T01:25:20;7.80;99.90
14006;DHT22;7078;51.542;7.314;2023-11-21T01:27:46;7.70;99.90
14006;DHT22;7078;51.542;7.314;2023-11-21T01:30:12;7.80;99.90
14006;DHT22;7078;51.542;7.314;2023-11-21T01:32:38;7.80;99.90
14006;DHT22;7078;51.542;7.314;2023-11-21T01:35:05;7.90;99.90
14006;DHT22;7078;51.542;7.314;2023-11-21T01:37:32;7.90;99.90
14006;DHT22;7078;51.542;7.314;2023-11-21T01:39:58;7.90;99.90
14006;DHT22;7078;51.542;7.314;2023-11-21T01:42:24;7.90;99.90
14006;DHT22;7078;51.542;7.314;2023-11-21T01:44:49;7.90;99.90
14006;DHT22;7078;51.542;7.314;2023-11-21T01:47:16;7.90;99.90
14006;DHT22;7078;51.542;7.314;2023-11-21T01:49:45;7.90;99.90
14006;DHT22;7078;51.542;7.314;2023-11-21T01:52:12;7.90;99.90
14006;DHT22;7078;51.542;7.314;2023-11-21T01:54:37;7.90;99.90
14006;DHT22;7078;51.542;7.314;2023-11-21T01:57:04;8.00;99.90
14006;DHT22;7078;51.542;7.314;2023-11-21T01:59:35;8.00;99.90
14006;DHT22;7078;51.542;7.314;2023-11-21T02:02:03;8.00;99.90
14006;DHT22;7078;51.542;7.314;2023-11-21T02:04:30;8.10;99.90
14006;DHT22;7078;51.542;7.314;2023-11-21T02:06:57;8.10;99.90
14006;DHT22;7078;51.542;7.314;2023-11-21T02:09:28;8.10;99.90
14006;DHT22;7078;51.542;7.314;2023-11-21T02:11:56;8.10;99.90
14006;DHT22;7078;51.542;7.314;2023-11-21T02:14:22;8.00;99.90
14006;DHT22;7078;51.542;7.314;2023-11-21T02:16:51;8.00;99.90
14006;DHT22;7078;51.542;7.314;2023-11-21T02:19:21;7.90;99.90
14006;DHT22;7078;51.542;7.314;2023-11-21T02:21:56;7.90;99.90
14006;DHT22;7078;51.542;7.314;2023-11-21T02:24:23;7.90;99.90
14006;DHT22;7078;51.542;7.314;2023-11-21T02:26:50;7.90;99.90
14006;DHT22;7078;51.542;7.314;2023-11-21T02:29:21;7.80;99.90
14006;DHT22;7078;51.542;7.314;2023-11-21T02:31:56;7.80;99.90
14006;DHT22;7078;51.542;7.314;2023-11-21T02:34:22;7.80;99.90
14006;DHT22;7078;51.542;7.314;2023-11-21T02:36:48;7.80;99.90
14006;DHT22;7078;51.542;7.314;2023-11-21T02:39:17;7.90;99.90
14006;DHT22;7078;51.542;7.314;2023-11-21T02:41:44;7.90;99.90
14006;DHT22;7078;51.542;7.314;2023-11-21T02:44:10;7.80;99.90
14006;DHT22;7078;51.542;7.314;2023-11-21T02:46:36;7.80;99.90
14006;DHT22;7078;51.542;7.314;2023-11-21T02:49:03;7.80;99.90
14006;DHT22;7078;51.542;7.314;2023-11-21T02:51:29;7.90;99.90
14006;DHT22;7078;51.542;7.314;2023-11-21T02:53:55;7.80;99.90
14006;DHT22;7078;51.542;7.314;2023-11-21T02:56:27;7.80;99.90
14006;DHT22;7078;51.542;7.314;2023-11-21T02:58:55;7.80;99.90
14006;DHT22;7078;51.542;7.314;2023-11-21T03:01:21;7.80;99.90
14006;DHT22;7078;51.542;7.314;2023-11-21T03:03:47;7.80;99.90
14006;DHT22;7078;51.542;7.314;2023-11-21T03:06:13;7.80;99.90
14006;DHT22;7078;51.542;7.314;2023-11-21T03:08:38;7.90;99.90
14006;DHT22;7078;51.542;7.314;2023-11-21T03:11:04;7.90;99.90
14006;DHT22;7078;51.542;7.314;2023-11-21T03:13:30;7.90;99.90
14006;DHT22;7078;51.542;7.314;2023-11-21T03:15:55;7.90;99.90
14006;DHT22;7078;51.542;7.314;2023-11-21T03:18:21;7.90;99.90
14006;DHT22;7078;51.542;7.314;2023-11-21T03:20:47;7.90;99.90
14006;DHT22;7078;51.542;7.314;2023-11-21T03:23:13;7.90;99.90
14006;DHT22;7078;51.542;7.314;2023-11-21T03:25:38;7.90;99.90
14006;DHT22;7078;51.542;7.314;2023-11-21T03:28:04;7.90;99.90
14006;DHT22;7078;51.542;7.314;2023-11-21T03:30:30;7.90;99.90
14006;DHT22;7078;51.542;7.314;2023-11-21T03:32:55;7.90;99.90
14006;DHT22;7078;51.542;7.314;2023-11-21T03:35:22;7.90;99.90
14006;DHT22;7078;51.542;7.314;2023-11-21T03:37:47;7.90;99.90
14006;DHT22;7078;51.542;7.314;2023-11-21T03:40:13;7.90;99.90
14006;DHT22;7078;51.542;7.314;2023-11-21T03:42:39;7.90;99.90
14006;DHT22;7078;51.542;7.314;2023-11-21T03:45:06;7.90;99.90
14006;DHT22;7078;51.542;7.314;2023-11-21T03:47:32;7.90;99.90
14006;DHT22;7078;51.542;7.314;2023-11-21T03:49:57;7.90;99.90
14006;DHT22;7078;51.542;7.314;2023-11-21T03:52:24;7.90;99.90
14006;DHT22;7078;51.542;7.314;2023-11-21T03:54:49;7.90;99.90
14006;DHT22;7078;51.542;7.314;2023-11-21T03:57:15;7.90;99.90
14006;DHT22;7078;51.542;7.314;2023-11-21T03:59:40;7.90;99.90
14006;DHT22;7078;51.542;7.314;2023-11-21T04:02:07;7.90;99.90
14006;DHT22;7078;51.542;7.314;2023-11-21T04:04:33;7.90;99.90
14006;DHT22;7078;51.542;7.314;2023-11-21T04:06:59;7.90;99.90
14006;DHT22;7078;51.542;7.314;2023-11-21T04:09:24;7.90;99.90
14006;DHT22;7078;51.542;7.314;2023-11-21T04:11:51;7.90;99.90
14006;DHT22;7078;51.542;7.314;2023-11-21T04:14:17;8.00;99.90
14006;DHT22;7078;51.542;7.314;2023-11-21T04:16:42;7.90;99.90
14006;DHT22;7078;51.542;7.314;2023-11-21T04:19:08;8.00;99.90
14006;DHT22;7078;51.542;7.314;2023-11-21T04:21:38;8.00;99.90
14006;DHT22;7078;51.542;7.314;2023-11-21T04:24:04;8.00;99.90
14006;DHT22;7078;51.542;7.314;2023-11-21T04:26:30;8.00;99.90
14006;DHT22;7078;51.542;7.314;2023-11-21T04:28:55;8.00;99.90
14006;DHT22;7078;51.542;7.314;2023-11-21T04:31:21;8.00;99.90
14006;DHT22;7078;51.542;7.314;2023-11-21T04:33:46;8.00;99.90
14006;DHT22;7078;51.542;7.314;2023-11-21T04:36:12;8.00;99.90
14006;DHT22;7078;51.542;7.314;2023-11-21T04:38:37;8.00;99.90
14006;DHT22;7078;51.542;7.314;2023-11-21T04:41:03;8.00;99.90
14006;DHT22;7078;51.542;7.314;2023-11-21T04:43:28;8.00;99.90
14006;DHT22;7078;51.542;7.314;2023-11-21T04:45:55;7.90;99.90
14006;DHT22;7078;51.542;7.314;2023-11-21T04:48:20;8.00;99.90
14006;DHT22;7078;51.542;7.314;2023-11-21T04:50:46;7.90;99.90
14006;DHT22;7078;51.542;7.314;2023-11-21T04:53:11;7.90;99.90
14006;DHT22;7078;51.542;7.314;2023-11-21T04:55:40;7.90;99.90
14006;DHT22;7078;51.542;7.314;2023-11-21T04:58:05;7.80;99.90
14006;DHT22;7078;51.542;7.314;2023-11-21T05:00:31;7.80;99.90
14006;DHT22;7078;51.542;7.314;2023-11-21T05:02:57;7.80;99.90
14006;DHT22;7078;51.542;7.314;2023-11-21T05:05:22;7.70;99.90
14006;DHT22;7078;51.542;7.314;2023-11-21T05:07:48;7.70;99.90
14006;DHT22;7078;51.542;7.314;2023-11-21T05:10:14;7.70;99.90
14006;DHT22;7078;51.542;7.314;2023-11-21T05:12:41;7.60;99.90
14006;DHT22;7078;51.542;7.314;2023-11-21T05:15:08;7.60;99.90
14006;DHT22;7078;51.542;7.314;2023-11-21T05:17:39;7.50;99.90
14006;DHT22;7078;51.542;7.314;2023-11-21T05:20:08;7.50;99.90
14006;DHT22;7078;51.542;7.314;2023-11-21T05:22:35;7.40;99.90
14006;DHT22;7078;51.542;7.314;2023-11-21T05:25:02;7.40;99.90
14006;DHT22;7078;51.542;7.314;2023-11-21T05:27:29;7.30;99.90
14006;DHT22;7078;51.542;7.314;2023-11-21T05:29:56;7.20;99.90
14006;DHT22;7078;51.542;7.314;2023-11-21T05:32:22;7.20;99.90
14006;DHT22;7078;51.542;7.314;2023-11-21T05:34:49;7.20;99.90
14006;DHT22;7078;51.542;7.314;2023-11-21T05:37:14;7.10;99.90
14006;DHT22;7078;51.542;7.314;2023-11-21T05:39:40;7.10;99.90
14006;DHT22;7078;51.542;7.314;2023-11-21T05:42:06;7.10;99.90
14006;DHT22;7078;51.542;7.314;2023-11-21T05:44:31;7.00;99.90
14006;DHT22;7078;51.542;7.314;2023-11-21T05:46:57;7.00;99.90
14006;DHT22;7078;51.542;7.314;2023-11-21T05:49:24;6.90;99.90
14006;DHT22;7078;51.542;7.314;2023-11-21T05:51:53;6.90;99.90
14006;DHT22;7078;51.542;7.314;2023-11-21T05:54:19;6.90;99.90
14006;DHT22;7078;51.542;7.314;2023-11-21T05:56:45;6.90;99.90
14006;DHT22;7078;51.542;7.314;2023-11-21T05:59:10;6.90;99.90
14006;DHT22;7078;51.542;7.314;2023-11-21T06:01:36;6.80;99.90
14006;DHT22;7078;51.542;7.314;2023-11-21T06:04:04;6.80;99.90
14006;DHT22;7078;51.542;7.314;2023-11-21T06:06:29;6.80;99.90
14006;DHT22;7078;51.542;7.314;2023-11-21T06:08:56;6.80;99.90
14006;DHT22;7078;51.542;7.314;2023-11-21T06:11:22;6.80;99.90
14006;DHT22;7078;51.542;7.314;2023-11-21T06:13:47;6.90;99.90
14006;DHT22;7078;51.542;7.314;2023-11-21T06:16:13;7.50;99.90
14006;DHT22;7078;51.542;7.314;2023-11-21T06:18:41;7.90;99.90
14006;DHT22;7078;51.542;7.314;2023-11-21T06:21:09;8.20;99.90
14006;DHT22;7078;51.542;7.314;2023-11-21T06:23:35;8.30;99.90
14006;DHT22;7078;51.542;7.314;2023-11-21T06:26:01;8.20;99.90
14006;DHT22;7078;51.542;7.314;2023-11-21T06:28:26;8.40;99.90
14006;DHT22;7078;51.542;7.314;2023-11-21T06:30:52;8.50;99.90
14006;DHT22;7078;51.542;7.314;2023-11-21T06:33:18;8.30;99.90
14006;DHT22;7078;51.542;7.314;2023-11-21T06:35:44;8.00;99.90
14006;DHT22;7078;51.542;7.314;2023-11-21T06:38:10;7.90;99.90
14006;DHT22;7078;51.542;7.314;2023-11-21T06:40:35;7.60;99.90
14006;DHT22;7078;51.542;7.314;2023-11-21T06:43:01;7.50;99.90
14006;DHT22;7078;51.542;7.314;2023-11-21T06:45:27;7.30;99.90
14006;DHT22;7078;51.542;7.314;2023-11-21T06:47:53;7.20;99.90
14006;DHT22;7078;51.542;7.314;2023-11-21T06:50:18;7.20;99.90
14006;DHT22;7078;51.542;7.314;2023-11-21T06:52:44;7.10;99.90
14006;DHT22;7078;51.542;7.314;2023-11-21T06:55:10;7.00;99.90
14006;DHT22;7078;51.542;7.314;2023-11-21T06:57:36;7.00;99.90
14006;DHT22;7078;51.542;7.314;2023-11-21T07:00:02;7.00;99.90
14006;DHT22;7078;51.542;7.314;2023-11-21T07:02:28;7.00;99.90
14006;DHT22;7078;51.542;7.314;2023-11-21T07:04:54;7.00;99.90
14006;DHT22;7078;51.542;7.314;2023-11-21T07:07:19;6.90;99.90
14006;DHT22;7078;51.542;7.314;2023-11-21T07:09:45;6.90;99.90
14006;DHT22;7078;51.542;7.314;2023-11-21T07:12:12;7.00;99.90
14006;DHT22;7078;51.542;7.314;2023-11-21T07:14:37;7.00;99.90
14006;DHT22;7078;51.542;7.314;2023-11-21T07:17:05;7.00;99.90
14006;DHT22;7078;51.542;7.314;2023-11-21T07:19:32;7.00;99.90
14006;DHT22;7078;51.542;7.314;2023-11-21T07:21:57;7.00;99.90
14006;DHT22;7078;51.542;7.314;2023-11-21T07:24:23;7.00;99.90
14006;DHT22;7078;51.542;7.314;2023-11-21T07:26:48;7.10;99.90
14006;DHT22;7078;51.542;7.314;2023-11-21T07:29:14;7.10;99.90
14006;DHT22;7078;51.542;7.314;2023-11-21T07:31:40;7.20;99.90
14006;DHT22;7078;51.542;7.314;2023-11-21T07:34:06;7.20;99.90
14006;DHT22;7078;51.542;7.314;2023-11-21T07:36:33;7.20;99.90
14006;DHT22;7078;51.542;7.314;2023-11-21T07:38:59;7.30;99.90
14006;DHT22;7078;51.542;7.314;2023-11-21T07:41:25;7.40;99.90
14006;DHT22;7078;51.542;7.314;2023-11-21T07:43:51;7.40;99.90
14006;DHT22;7078;51.542;7.314;2023-11-21T07:46:16;7.40;99.90
14006;DHT22;7078;51.542;7.314;2023-11-21T07:48:42;7.40;99.90
14006;DHT22;7078;51.542;7.314;2023-11-21T07:51:09;7.50;99.90
14006;DHT22;7078;51.542;7.314;2023-11-21T07:53:35;7.60;99.90
14006;DHT22;7078;51.542;7.314;2023-11-21T07:56:05;7.60;99.90
14006;DHT22;7078;51.542;7.314;2023-11-21T07:58:31;7.60;99.90
14006;DHT22;7078;51.542;7.314;2023-11-21T08:00:59;7.70;99.90
14006;DHT22;7078;51.542;7.314;2023-11-21T08:03:25;7.70;99.90
14006;DHT22;7078;51.542;7.314;2023-11-21T08:05:52;7.70;99.90
14006;DHT22;7078;51.542;7.314;2023-11-21T08:08:18;7.80;99.90
14006;DHT22;7078;51.542;7.314;2023-11-21T08:10:46;7.80;99.90
14006;DHT22;7078;51.542;7.314;2023-11-21T08:13:30;7.90;99.90
14006;DHT22;7078;51.542;7.314;2023-11-21T08:15:57;7.90;99.90
14006;DHT22;7078;51.542;7.314;2023-11-21T08:18:28;8.00;99.90
14006;DHT22;7078;51.542;7.314;2023-11-21T08:20:55;8.00;99.90
14006;DHT22;7078;51.542;7.314;2023-11-21T08:23:21;8.00;99.90
14006;DHT22;7078;51.542;7.314;2023-11-21T08:25:51;8.10;99.90
14006;DHT22;7078;51.542;7.314;2023-11-21T08:28:17;8.10;99.90
14006;DHT22;7078;51.542;7.314;2023-11-21T08:30:42;8.30;99.90
14006;DHT22;7078;51.542;7.314;2023-11-21T08:33:08;8.30;99.90
14006;DHT22;7078;51.542;7.314;2023-11-21T08:35:34;8.40;99.90
14006;DHT22;7078;51.542;7.314;2023-11-21T08:38:00;8.40;99.90
14006;DHT22;7078;51.542;7.314;2023-11-21T08:40:26;8.50;99.90
14006;DHT22;7078;51.542;7.314;2023-11-21T08:42:51;8.60;99.90
14006;DHT22;7078;51.542;7.314;2023-11-21T08:45:18;8.60;99.90
14006;DHT22;7078;51.542;7.314;2023-11-21T08:47:45;8.70;99.90
14006;DHT22;7078;51.542;7.314;2023-11-21T08:50:11;8.60;99.90
14006;DHT22;7078;51.542;7.314;2023-11-21T08:52:38;8.70;99.90
14006;DHT22;7078;51.542;7.314;2023-11-21T08:55:05;8.80;99.90
14006;DHT22;7078;51.542;7.314;2023-11-21T08:57:36;8.80;99.90
14006;DHT22;7078;51.542;7.314;2023-11-21T09:00:09;8.80;99.90
14006;DHT22;7078;51.542;7.314;2023-11-21T09:02:37;8.90;99.90
14006;DHT22;7078;51.542;7.314;2023-11-21T09:05:06;9.00;99.90
14006;DHT22;7078;51.542;7.314;2023-11-21T09:07:32;9.00;99.90
14006;DHT22;7078;51.542;7.314;2023-11-21T09:09:58;9.00;99.90
14006;DHT22;7078;51.542;7.314;2023-11-21T09:12:24;9.10;99.90
14006;DHT22;7078;51.542;7.314;2023-11-21T09:14:52;9.10;99.90
14006;DHT22;7078;51.542;7.314;2023-11-21T09:17:17;9.20;99.90
14006;DHT22;7078;51.542;7.314;2023-11-21T09:19:44;9.30;99.90
14006;DHT22;7078;51.542;7.314;2023-11-21T09:22:12;9.30;99.90
14006;DHT22;7078;51.542;7.314;2023-11-21T09:24:38;9.40;99.90
14006;DHT22;7078;51.542;7.314;2023-11-21T09:27:04;9.50;99.90
14006;DHT22;7078;51.542;7.314;2023-11-21T09:29:30;9.50;99.90
14006;DHT22;7078;51.542;7.314;2023-11-21T09:31:57;9.60;99.90
14006;DHT22;7078;51.542;7.314;2023-11-21T09:34:25;9.60;99.90
14006;DHT22;7078;51.542;7.314;2023-11-21T09:36:51;9.60;99.90
14006;DHT22;7078;51.542;7.314;2023-11-21T09:39:17;9.60;99.90
14006;DHT22;7078;51.542;7.314;2023-11-21T09:41:44;9.70;99.90
14006;DHT22;7078;51.542;7.314;2023-11-21T09:44:13;9.70;99.90
14006;DHT22;7078;51.542;7.314;2023-11-21T09:46:42;9.70;99.90
14006;DHT22;7078;51.542;7.314;2023-11-21T09:49:09;9.70;99.90
14006;DHT22;7078;51.542;7.314;2023-11-21T09:51:42;9.70;99.90
14006;DHT22;7078;51.542;7.314;2023-11-21T09:54:10;9.70;99.90
14006;DHT22;7078;51.542;7.314;2023-11-21T09:56:37;9.70;99.90
14006;DHT22;7078;51.542;7.314;2023-11-21T09:59:03;9.70;99.90
14006;DHT22;7078;51.542;7.314;2023-11-21T10:01:33;9.70;99.90
14006;DHT22;7078;51.542;7.314;2023-11-21T10:04:01;9.80;99.90
14006;DHT22;7078;51.542;7.314;2023-11-21T10:06:26;9.80;99.90
14006;DHT22;7078;51.542;7.314;2023-11-21T10:08:54;9.80;99.90
14006;DHT22;7078;51.542;7.314;2023-11-21T10:11:24;9.90;99.90
14006;DHT22;7078;51.542;7.314;2023-11-21T10:13:55;9.90;99.90
14006;DHT22;7078;51.542;7.314;2023-11-21T10:16:25;10.00;99.90
14006;DHT22;7078;51.542;7.314;2023-11-21T10:18:52;10.00;99.90
14006;DHT22;7078;51.542;7.314;2023-11-21T10:21:21;10.10;99.90
14006;DHT22;7078;51.542;7.314;2023-11-21T10:23:47;10.20;99.90
14006;DHT22;7078;51.542;7.314;2023-11-21T10:26:13;10.30;99.90
14006;DHT22;7078;51.542;7.314;2023-11-21T10:28:57;10.30;99.90
14006;DHT22;7078;51.542;7.314;2023-11-21T10:31:23;10.30;99.90
14006;DHT22;7078;51.542;7.314;2023-11-21T10:33:50;10.30;99.90
14006;DHT22;7078;51.542;7.314;2023-11-21T10:36:26;10.20;99.90
14006;DHT22;7078;51.542;7.314;2023-11-21T10:38:53;10.10;99.90
14006;DHT22;7078;51.542;7.314;2023-11-21T10:41:19;10.20;99.90
14006;DHT22;7078;51.542;7.314;2023-11-21T10:43:44;10.20;99.90
14006;DHT22;7078;51.542;7.314;2023-11-21T10:46:10;10.30;99.90
14006;DHT22;7078;51.542;7.314;2023-11-21T10:48:35;10.40;99.90
14006;DHT22;7078;51.542;7.314;2023-11-21T10:51:07;10.60;99.90
14006;DHT22;7078;51.542;7.314;2023-11-21T10:53:39;10.60;99.90
14006;DHT22;7078;51.542;7.314;2023-11-21T10:56:08;10.60;99.90
14006;DHT22;7078;51.542;7.314;2023-11-21T10:58:37;10.50;99.90
14006;DHT22;7078;51.542;7.314;2023-11-21T11:01:06;10.50;99.90
14006;DHT22;7078;51.542;7.314;2023-11-21T11:03:32;10.50;99.90
14006;DHT22;7078;51.542;7.314;2023-11-21T11:06:02;10.50;99.90
14006;DHT22;7078;51.542;7.314;2023-11-21T11:08:28;10.50;99.90
14006;DHT22;7078;51.542;7.314;2023-11-21T11:10:55;10.50;99.90
14006;DHT22;7078;51.542;7.314;2023-11-21T11:13:21;10.50;99.90
14006;DHT22;7078;51.542;7.314;2023-11-21T11:15:49;10.50;99.90
14006;DHT22;7078;51.542;7.314;2023-11-21T11:18:16;10.50;99.90
14006;DHT22;7078;51.542;7.314;2023-11-21T11:20:43;10.40;99.90
14006;DHT22;7078;51.542;7.314;2023-11-21T11:26:21;10.40;99.90
14006;DHT22;7078;51.542;7.314;2023-11-21T11:29:23;10.30;99.90
14006;DHT22;7078;51.542;7.314;2023-11-21T11:35:10;10.30;99.90
14006;DHT22;7078;51.542;7.314;2023-11-21T11:37:40;10.10;99.90
14006;DHT22;7078;51.542;7.314;2023-11-21T11:40:06;9.80;99.90
14006;DHT22;7078;51.542;7.314;2023-11-21T11:42:32;9.90;99.90
14006;DHT22;7078;51.542;7.314;2023-11-21T11:44:58;9.90;99.90
14006;DHT22;7078;51.542;7.314;2023-11-21T11:47:27;9.80;99.90
14006;DHT22;7078;51.542;7.314;2023-11-21T11:52:46;9.90;99.90
14006;DHT22;7078;51.542;7.314;2023-11-21T11:55:16;9.80;99.90
14006;DHT22;7078;51.542;7.314;2023-11-21T11:57:53;9.80;99.90
14006;DHT22;7078;51.542;7.314;2023-11-21T12:00:23;9.80;99.90
14006;DHT22;7078;51.542;7.314;2023-11-21T12:03:01;9.80;99.90
14006;DHT22;7078;51.542;7.314;2023-11-21T12:05:30;9.80;99.90
14006;DHT22;7078;51.542;7.314;2023-11-21T12:08:01;9.80;99.90
14006;DHT22;7078;51.542;7.314;2023-11-21T12:10:28;9.80;99.90
14006;DHT22;7078;51.542;7.314;2023-11-21T12:12:58;9.80;99.90
14006;DHT22;7078;51.542;7.314;2023-11-21T12:15:24;9.80;99.90
14006;DHT22;7078;51.542;7.314;2023-11-21T12:17:50;9.80;99.90
14006;DHT22;7078;51.542;7.314;2023-11-21T12:20:20;9.70;99.90
14006;DHT22;7078;51.542;7.314;2023-11-21T12:22:50;9.80;99.90
14006;DHT22;7078;51.542;7.314;2023-11-21T12:25:17;9.70;99.90
14006;DHT22;7078;51.542;7.314;2023-11-21T12:27:49;9.70;99.90
14006;DHT22;7078;51.542;7.314;2023-11-21T12:30:16;9.70;99.90
14006;DHT22;7078;51.542;7.314;2023-11-21T12:32:43;9.70;99.90
14006;DHT22;7078;51.542;7.314;2023-11-21T12:35:10;9.60;99.90
14006;DHT22;7078;51.542;7.314;2023-11-21T12:37:40;9.70;99.90
14006;DHT22;7078;51.542;7.314;2023-11-21T12:40:10;9.70;99.90
14006;DHT22;7078;51.542;7.314;2023-11-21T12:42:48;9.70;99.90
14006;DHT22;7078;51.542;7.314;2023-11-21T12:45:18;9.60;99.90
14006;DHT22;7078;51.542;7.314;2023-11-21T12:47:46;9.60;99.90
14006;DHT22;7078;51.542;7.314;2023-11-21T12:50:12;9.60;99.90
14006;DHT22;7078;51.542;7.314;2023-11-21T12:52:42;9.60;99.90
14006;DHT22;7078;51.542;7.314;2023-11-21T12:55:13;9.60;99.90
14006;DHT22;7078;51.542;7.314;2023-11-21T12:57:42;9.60;99.90
14006;DHT22;7078;51.542;7.314;2023-11-21T13:00:08;9.60;99.90
14006;DHT22;7078;51.542;7.314;2023-11-21T13:02:40;9.60;99.90
14006;DHT22;7078;51.542;7.314;2023-11-21T13:05:07;9.60;99.90
14006;DHT22;7078;51.542;7.314;2023-11-21T13:07:44;9.60;99.90
14006;DHT22;7078;51.542;7.314;2023-11-21T13:10:12;9.60;99.90
14006;DHT22;7078;51.542;7.314;2023-11-21T13:12:43;9.60;99.90
14006;DHT22;7078;51.542;7.314;2023-11-21T13:15:14;9.60;99.90
14006;DHT22;7078;51.542;7.314;2023-11-21T13:17:42;9.50;99.90
14006;DHT22;7078;51.542;7.314;2023-11-21T13:20:10;9.50;99.90
14006;DHT22;7078;51.542;7.314;2023-11-21T13:22:45;9.50;99.90
14006;DHT22;7078;51.542;7.314;2023-11-21T13:25:11;9.50;99.90
14006;DHT22;7078;51.542;7.314;2023-11-21T13:27:36;9.50;99.90
14006;DHT22;7078;51.542;7.314;2023-11-21T13:30:02;9.50;99.90
14006;DHT22;7078;51.542;7.314;2023-11-21T13:32:29;9.50;99.90
14006;DHT22;7078;51.542;7.314;2023-11-21T13:34:54;9.50;99.90
14006;DHT22;7078;51.542;7.314;2023-11-21T13:37:20;9.50;99.90
14006;DHT22;7078;51.542;7.314;2023-11-21T13:39:46;9.50;99.90
14006;DHT22;7078;51.542;7.314;2023-11-21T13:42:15;9.50;99.90
14006;DHT22;7078;51.542;7.314;2023-11-21T13:44:42;9.50;99.90
14006;DHT22;7078;51.542;7.314;2023-11-21T13:47:12;9.50;99.90
14006;DHT22;7078;51.542;7.314;2023-11-21T13:49:37;9.50;99.90
14006;DHT22;7078;51.542;7.314;2023-11-21T13:52:06;9.50;99.90
14006;DHT22;7078;51.542;7.314;2023-11-21T13:54:32;9.50;99.90
14006;DHT22;7078;51.542;7.314;2023-11-21T13:56:58;9.60;99.90
14006;DHT22;7078;51.542;7.314;2023-11-21T13:59:25;9.60;99.90
14006;DHT22;7078;51.542;7.314;2023-11-21T14:01:53;9.60;99.90
14006;DHT22;7078;51.542;7.314;2023-11-21T14:04:25;9.60;99.90
14006;DHT22;7078;51.542;7.314;2023-11-21T14:07:03;9.60;99.90
14006;DHT22;7078;51.542;7.314;2023-11-21T14:09:36;9.60;99.90
14006;DHT22;7078;51.542;7.314;2023-11-21T14:12:09;9.70;99.90
14006;DHT22;7078;51.542;7.314;2023-11-21T14:14:38;9.60;99.90
14006;DHT22;7078;51.542;7.314;2023-11-21T14:17:05;9.60;99.90
14006;DHT22;7078;51.542;7.314;2023-11-21T14:19:32;9.60;99.90
14006;DHT22;7078;51.542;7.314;2023-11-21T14:21:59;9.60;99.90
14006;DHT22;7078;51.542;7.314;2023-11-21T14:24:25;9.50;99.90
14006;DHT22;7078;51.542;7.314;2023-11-21T14:26:51;9.60;99.90
14006;DHT22;7078;51.542;7.314;2023-11-21T14:29:18;9.40;99.90
14006;DHT22;7078;51.542;7.314;2023-11-21T14:31:46;9.40;99.90
14006;DHT22;7078;51.542;7.314;2023-11-21T14:34:11;9.40;99.90
14006;DHT22;7078;51.542;7.314;2023-11-21T14:36:38;9.40;99.90
14006;DHT22;7078;51.542;7.314;2023-11-21T14:39:05;9.40;99.90
14006;DHT22;7078;51.542;7.314;2023-11-21T14:41:35;9.40;99.90
14006;DHT22;7078;51.542;7.314;2023-11-21T14:44:01;9.30;99.90
14006;DHT22;7078;51.542;7.314;2023-11-21T14:46:28;9.30;99.90
14006;DHT22;7078;51.542;7.314;2023-11-21T14:48:54;9.30;99.90
14006;DHT22;7078;51.542;7.314;2023-11-21T14:51:39;9.30;99.90
14006;DHT22;7078;51.542;7.314;2023-11-21T14:54:28;9.20;99.90
14006;DHT22;7078;51.542;7.314;2023-11-21T14:57:10;9.20;99.90
14006;DHT22;7078;51.542;7.314;2023-11-21T14:59:48;9.20;99.90
14006;DHT22;7078;51.542;7.314;2023-11-21T15:02:19;9.20;99.90
14006;DHT22;7078;51.542;7.314;2023-11-21T15:05:08;9.20;99.90
14006;DHT22;7078;51.542;7.314;2023-11-21T15:07:40;9.20;99.90
14006;DHT22;7078;51.542;7.314;2023-11-21T15:10:06;9.20;99.90
14006;DHT22;7078;51.542;7.314;2023-11-21T15:12:36;9.20;99.90
14006;DHT22;7078;51.542;7.314;2023-11-21T15:15:04;9.10;99.90
14006;DHT22;7078;51.542;7.314;2023-11-21T15:17:32;9.10;99.90
14006;DHT22;7078;51.542;7.314;2023-11-21T15:19:58;9.00;99.90
14006;DHT22;7078;51.542;7.314;2023-11-21T15:22:25;9.00;99.90
14006;DHT22;7078;51.542;7.314;2023-11-21T15:24:52;9.00;99.90
14006;DHT22;7078;51.542;7.314;2023-11-21T15:27:19;8.90;99.90
14006;DHT22;7078;51.542;7.314;2023-11-21T15:29:45;8.90;99.90
14006;DHT22;7078;51.542;7.314;2023-11-21T15:32:12;8.80;99.90
14006;DHT22;7078;51.542;7.314;2023-11-21T15:34:38;8.70;99.90
14006;DHT22;7078;51.542;7.314;2023-11-21T15:37:05;8.60;99.90
14006;DHT22;7078;51.542;7.314;2023-11-21T15:39:33;8.60;99.90
14006;DHT22;7078;51.542;7.314;2023-11-21T15:41:59;8.50;99.90
14006;DHT22;7078;51.542;7.314;2023-11-21T15:44:28;8.50;99.90
14006;DHT22;7078;51.542;7.314;2023-11-21T15:46:55;8.40;99.90
14006;DHT22;7078;51.542;7.314;2023-11-21T15:49:21;8.40;99.90
14006;DHT22;7078;51.542;7.314;2023-11-21T15:51:49;8.30;99.90
14006;DHT22;7078;51.542;7.314;2023-11-21T15:54:21;8.30;99.90
14006;DHT22;7078;51.542;7.314;2023-11-21T15:56:48;8.10;99.90
14006;DHT22;7078;51.542;7.314;2023-11-21T15:59:15;8.10;99.90
14006;DHT22;7078;51.542;7.314;2023-11-21T16:01:41;8.10;99.90
14006;DHT22;7078;51.542;7.314;2023-11-21T16:04:10;8.10;99.90
14006;DHT22;7078;51.542;7.314;2023-11-21T16:06:36;8.10;99.90
14006;DHT22;7078;51.542;7.314;2023-11-21T16:09:05;8.00;99.90